RYR77GG LIPH-LBSF
Flight info
| Callsign | RYR77GG |
|---|---|
| Flight time | 1h 14m |
| Altitude | 35000 |
| Route | INBUT N503 LAREN Q561 AKADO L615 TULIK DCT ROTAR DCT RUGOG DCT MONID DCT OKSIG DCT VEBAR DCT KOSIV DCT NISVA |
| Aircraft | A320/M-SDE3FGHIRWY/LB1 |
Departure
| Time | 2026-05-06 13:27 |
|---|---|
| Airport | Treviso Airport (LIPH) |
Arrival
| Time | 2026-05-06 14:42 |
|---|---|
| Airport | Sofia Airport (LBSF) |
| Time | Latitude | Longitude | Altitude | Speed | Heading |
|---|---|---|---|---|---|
| 2026-05-06 13:11 | 45.65386 | 12.20428 | 54 ft | 0 kts | 338° |
| 2026-05-06 13:19 | 45.65384 | 12.20429 | 53 ft | 2 kts | 338° |
| 2026-05-06 13:19 | 45.65360 | 12.20444 | 53 ft | 4 kts | 338° |
| 2026-05-06 13:19 | 45.65335 | 12.20457 | 59 ft | 4 kts | 330° |
| 2026-05-06 13:19 | 45.65325 | 12.20465 | 55 ft | 2 kts | 249° |
| 2026-05-06 13:20 | 45.65327 | 12.20472 | 57 ft | 0 kts | 249° |
| 2026-05-06 13:22 | 45.65326 | 12.20470 | 56 ft | 1 kts | 249° |
| 2026-05-06 13:22 | 45.65315 | 12.20430 | 62 ft | 8 kts | 249° |
| 2026-05-06 13:22 | 45.65281 | 12.20328 | 57 ft | 14 kts | 228° |
| 2026-05-06 13:22 | 45.65192 | 12.20260 | 61 ft | 15 kts | 204° |
| 2026-05-06 13:23 | 45.65096 | 12.20198 | 63 ft | 15 kts | 208° |
| 2026-05-06 13:23 | 45.65028 | 12.20077 | 58 ft | 17 kts | 248° |
| 2026-05-06 13:23 | 45.64985 | 12.19919 | 55 ft | 18 kts | 249° |
| 2026-05-06 13:23 | 45.64921 | 12.19675 | 59 ft | 33 kts | 249° |
| 2026-05-06 13:24 | 45.64824 | 12.19318 | 61 ft | 44 kts | 250° |
| 2026-05-06 13:24 | 45.64706 | 12.18875 | 63 ft | 50 kts | 249° |
| 2026-05-06 13:24 | 45.64582 | 12.18408 | 61 ft | 50 kts | 248° |
| 2026-05-06 13:24 | 45.64476 | 12.18010 | 67 ft | 18 kts | 261° |
| 2026-05-06 13:25 | 45.64494 | 12.17934 | 65 ft | 2 kts | 225° |
| 2026-05-06 13:25 | 45.64467 | 12.17936 | 65 ft | 5 kts | 132° |
| 2026-05-06 13:25 | 45.64473 | 12.17985 | 70 ft | 0 kts | 71° |
| 2026-05-06 13:26 | 45.64474 | 12.17988 | 70 ft | 2 kts | 71° |
| 2026-05-06 13:26 | 45.64529 | 12.18201 | 64 ft | 57 kts | 70° |
| 2026-05-06 13:26 | 45.64747 | 12.19032 | 62 ft | 118 kts | 69° |
| 2026-05-06 13:27 | 45.65095 | 12.20333 | 148 ft | 153 kts | 72° |
| 2026-05-06 13:27 | 45.65465 | 12.21725 | 740 ft | 148 kts | 72° |
| 2026-05-06 13:27 | 45.65778 | 12.23118 | 1321 ft | 144 kts | 86° |
| 2026-05-06 13:27 | 45.65762 | 12.24516 | 1671 ft | 145 kts | 110° |
| 2026-05-06 13:28 | 45.65258 | 12.25756 | 2016 ft | 140 kts | 142° |
| 2026-05-06 13:28 | 45.64452 | 12.26415 | 2355 ft | 137 kts | 165° |
| 2026-05-06 13:28 | 45.63455 | 12.26465 | 2222 ft | 171 kts | 205° |
| 2026-05-06 13:28 | 45.62447 | 12.25300 | 2355 ft | 196 kts | 220° |
| 2026-05-06 13:29 | 45.61201 | 12.24250 | 2623 ft | 219 kts | 202° |
| 2026-05-06 13:29 | 45.59713 | 12.23407 | 2982 ft | 242 kts | 202° |
| 2026-05-06 13:29 | 45.58104 | 12.22526 | 3717 ft | 251 kts | 201° |
| 2026-05-06 13:29 | 45.56489 | 12.21649 | 4633 ft | 254 kts | 202° |
| 2026-05-06 13:30 | 45.54789 | 12.20843 | 5653 ft | 259 kts | 192° |
| 2026-05-06 13:30 | 45.52966 | 12.20950 | 6576 ft | 269 kts | 166° |
| 2026-05-06 13:30 | 45.51323 | 12.22296 | 7399 ft | 280 kts | 138° |
| 2026-05-06 13:30 | 45.50311 | 12.24702 | 8279 ft | 292 kts | 109° |
| 2026-05-06 13:31 | 45.50015 | 12.27611 | 9186 ft | 299 kts | 98° |
| 2026-05-06 13:31 | 45.49836 | 12.30544 | 9965 ft | 302 kts | 98° |
| 2026-05-06 13:31 | 45.49665 | 12.33584 | 10321 ft | 320 kts | 98° |
| 2026-05-06 13:31 | 45.49480 | 12.36856 | 10538 ft | 341 kts | 98° |
| 2026-05-06 13:32 | 45.49282 | 12.40282 | 11088 ft | 348 kts | 98° |
| 2026-05-06 13:32 | 45.49080 | 12.43738 | 11738 ft | 352 kts | 98° |
| 2026-05-06 13:32 | 45.48870 | 12.47240 | 12522 ft | 356 kts | 98° |
| 2026-05-06 13:32 | 45.48654 | 12.50776 | 13368 ft | 360 kts | 99° |
| 2026-05-06 13:33 | 45.48433 | 12.54351 | 14154 ft | 365 kts | 99° |
| 2026-05-06 13:33 | 45.48206 | 12.57983 | 14776 ft | 371 kts | 99° |
| 2026-05-06 13:33 | 45.47972 | 12.61661 | 15459 ft | 375 kts | 99° |
| 2026-05-06 13:33 | 45.47736 | 12.65383 | 16244 ft | 380 kts | 99° |
| 2026-05-06 13:34 | 45.47499 | 12.69130 | 16993 ft | 387 kts | 99° |
| 2026-05-06 13:34 | 45.47254 | 12.72990 | 17585 ft | 390 kts | 99° |
| 2026-05-06 13:34 | 45.47008 | 12.76858 | 18156 ft | 394 kts | 99° |
| 2026-05-06 13:34 | 45.46759 | 12.80769 | 18661 ft | 398 kts | 99° |
| 2026-05-06 13:35 | 45.46510 | 12.84664 | 19161 ft | 401 kts | 100° |
| 2026-05-06 13:35 | 45.46252 | 12.88654 | 19684 ft | 404 kts | 100° |
| 2026-05-06 13:35 | 45.45989 | 12.92637 | 20182 ft | 408 kts | 100° |
| 2026-05-06 13:35 | 45.45720 | 12.96676 | 20714 ft | 411 kts | 100° |
| 2026-05-06 13:36 | 45.45449 | 13.00744 | 21235 ft | 413 kts | 100° |
| 2026-05-06 13:36 | 45.45176 | 13.04863 | 21749 ft | 416 kts | 100° |
| 2026-05-06 13:36 | 45.44904 | 13.08940 | 22241 ft | 419 kts | 100° |
| 2026-05-06 13:36 | 45.44627 | 13.13069 | 22760 ft | 422 kts | 101° |
| 2026-05-06 13:37 | 45.44345 | 13.17284 | 23250 ft | 425 kts | 101° |
| 2026-05-06 13:37 | 45.44064 | 13.21448 | 23692 ft | 428 kts | 101° |
| 2026-05-06 13:37 | 45.43775 | 13.25700 | 24073 ft | 431 kts | 101° |
| 2026-05-06 13:37 | 45.43480 | 13.29981 | 24451 ft | 434 kts | 101° |
| 2026-05-06 13:38 | 45.43181 | 13.34283 | 24812 ft | 437 kts | 101° |
| 2026-05-06 13:38 | 45.42882 | 13.38571 | 25184 ft | 440 kts | 101° |
| 2026-05-06 13:38 | 45.42579 | 13.42928 | 25548 ft | 443 kts | 101° |
| 2026-05-06 13:38 | 45.42275 | 13.47293 | 25915 ft | 446 kts | 101° |
| 2026-05-06 13:39 | 45.41963 | 13.51712 | 26274 ft | 449 kts | 101° |
| 2026-05-06 13:39 | 45.41649 | 13.56102 | 26608 ft | 452 kts | 101° |
| 2026-05-06 13:39 | 45.41327 | 13.60573 | 26937 ft | 455 kts | 101° |
| 2026-05-06 13:39 | 45.41001 | 13.65092 | 27281 ft | 458 kts | 101° |
| 2026-05-06 13:40 | 45.40676 | 13.69555 | 27588 ft | 461 kts | 101° |
| 2026-05-06 13:40 | 45.40342 | 13.74111 | 27940 ft | 463 kts | 101° |
| 2026-05-06 13:40 | 45.40007 | 13.78700 | 28268 ft | 466 kts | 101° |
| 2026-05-06 13:40 | 45.39672 | 13.83297 | 28585 ft | 469 kts | 101° |
| 2026-05-06 13:41 | 45.39447 | 13.86380 | 28810 ft | 471 kts | 101° |
| 2026-05-06 13:41 | 45.38996 | 13.92550 | 29240 ft | 475 kts | 101° |
| 2026-05-06 13:41 | 45.38649 | 13.97229 | 29560 ft | 477 kts | 101° |
| 2026-05-06 13:41 | 45.38294 | 14.01952 | 29878 ft | 480 kts | 101° |
| 2026-05-06 13:42 | 45.37936 | 14.06686 | 30161 ft | 483 kts | 101° |
| 2026-05-06 13:42 | 45.37577 | 14.11411 | 30536 ft | 482 kts | 101° |
| 2026-05-06 13:42 | 45.37218 | 14.16129 | 31040 ft | 479 kts | 101° |
| 2026-05-06 13:42 | 45.36976 | 14.19280 | 31434 ft | 477 kts | 101° |
| 2026-05-06 13:43 | 45.36615 | 14.23970 | 32052 ft | 475 kts | 101° |
| 2026-05-06 13:43 | 45.36254 | 14.28638 | 32548 ft | 472 kts | 101° |
| 2026-05-06 13:43 | 45.35899 | 14.33225 | 32980 ft | 471 kts | 101° |
| 2026-05-06 13:43 | 45.35537 | 14.37862 | 33435 ft | 469 kts | 102° |
| 2026-05-06 13:44 | 45.35178 | 14.42434 | 33890 ft | 467 kts | 102° |
| 2026-05-06 13:44 | 45.34812 | 14.47029 | 34280 ft | 465 kts | 101° |
| 2026-05-06 13:44 | 45.34445 | 14.51602 | 34715 ft | 463 kts | 101° |
| 2026-05-06 13:44 | 45.34080 | 14.56144 | 34945 ft | 463 kts | 101° |
| 2026-05-06 13:45 | 45.33712 | 14.60694 | 35000 ft | 467 kts | 101° |
| 2026-05-06 13:45 | 45.32967 | 14.69825 | 34998 ft | 481 kts | 101° |
| 2026-05-06 13:45 | 45.32575 | 14.74604 | 34995 ft | 486 kts | 101° |
| 2026-05-06 13:46 | 45.31787 | 14.84214 | 34992 ft | 493 kts | 101° |
| 2026-05-06 13:46 | 45.30984 | 14.93995 | 34980 ft | 500 kts | 101° |
| 2026-05-06 13:47 | 45.30166 | 15.03780 | 34956 ft | 501 kts | 101° |
| 2026-05-06 13:47 | 45.29329 | 15.13579 | 34959 ft | 501 kts | 101° |
| 2026-05-06 13:48 | 45.28478 | 15.23443 | 34961 ft | 502 kts | 101° |
| 2026-05-06 13:48 | 45.27171 | 15.33063 | 34956 ft | 493 kts | 114° |
| 2026-05-06 13:49 | 45.24523 | 15.41937 | 34957 ft | 490 kts | 119° |
| 2026-05-06 13:49 | 45.21802 | 15.50741 | 34958 ft | 490 kts | 119° |
| 2026-05-06 13:50 | 45.19082 | 15.59544 | 34945 ft | 490 kts | 119° |
| 2026-05-06 13:50 | 45.16330 | 15.68410 | 34956 ft | 490 kts | 119° |
| 2026-05-06 13:51 | 45.13582 | 15.77209 | 34961 ft | 490 kts | 119° |
| 2026-05-06 13:51 | 45.10838 | 15.85983 | 34963 ft | 490 kts | 119° |
| 2026-05-06 13:52 | 45.08068 | 15.94825 | 34941 ft | 489 kts | 118° |
| 2026-05-06 13:52 | 45.05321 | 16.03579 | 34945 ft | 490 kts | 118° |
| 2026-05-06 13:53 | 45.02531 | 16.12414 | 34949 ft | 490 kts | 119° |
| 2026-05-06 13:53 | 44.99756 | 16.21148 | 34947 ft | 490 kts | 118° |
| 2026-05-06 13:54 | 44.96996 | 16.29955 | 34926 ft | 493 kts | 114° |
| 2026-05-06 13:54 | 44.95112 | 16.39375 | 34923 ft | 498 kts | 108° |
| 2026-05-06 13:55 | 44.93383 | 16.48794 | 34925 ft | 499 kts | 108° |
| 2026-05-06 13:55 | 44.91624 | 16.58305 | 34927 ft | 499 kts | 108° |
| 2026-05-06 13:56 | 44.89861 | 16.67731 | 34931 ft | 499 kts | 108° |
| 2026-05-06 13:56 | 44.88098 | 16.77123 | 34932 ft | 498 kts | 108° |
| 2026-05-06 13:57 | 44.86313 | 16.86570 | 34938 ft | 498 kts | 108° |
| 2026-05-06 13:57 | 44.84514 | 16.96004 | 34935 ft | 499 kts | 108° |
| 2026-05-06 13:58 | 44.82210 | 17.05147 | 34947 ft | 493 kts | 117° |
| 2026-05-06 13:58 | 44.79468 | 17.13988 | 34947 ft | 492 kts | 117° |
| 2026-05-06 13:59 | 44.76729 | 17.22803 | 34948 ft | 491 kts | 117° |
| 2026-05-06 13:59 | 44.73982 | 17.31609 | 34941 ft | 491 kts | 117° |
| 2026-05-06 14:00 | 44.71238 | 17.40389 | 34937 ft | 490 kts | 117° |
| 2026-05-06 14:00 | 44.68486 | 17.49173 | 34938 ft | 490 kts | 117° |
| 2026-05-06 14:01 | 44.65724 | 17.57936 | 34938 ft | 491 kts | 117° |
| 2026-05-06 14:01 | 44.62957 | 17.66684 | 34928 ft | 491 kts | 117° |
| 2026-05-06 14:02 | 44.60182 | 17.75447 | 34930 ft | 491 kts | 117° |
| 2026-05-06 14:02 | 44.57397 | 17.84210 | 34926 ft | 492 kts | 117° |
| 2026-05-06 14:03 | 44.54605 | 17.92968 | 34929 ft | 492 kts | 117° |
| 2026-05-06 14:03 | 44.51805 | 18.01704 | 34921 ft | 492 kts | 117° |
| 2026-05-06 14:04 | 44.48996 | 18.10438 | 34925 ft | 492 kts | 117° |
| 2026-05-06 14:04 | 44.46175 | 18.19186 | 34939 ft | 493 kts | 117° |
| 2026-05-06 14:05 | 44.43344 | 18.27919 | 34940 ft | 493 kts | 117° |
| 2026-05-06 14:05 | 44.40509 | 18.36670 | 34928 ft | 494 kts | 117° |
| 2026-05-06 14:06 | 44.37670 | 18.45419 | 34932 ft | 495 kts | 117° |
| 2026-05-06 14:06 | 44.34811 | 18.54180 | 34928 ft | 495 kts | 117° |
| 2026-05-06 14:07 | 44.31948 | 18.62921 | 34936 ft | 495 kts | 117° |
| 2026-05-06 14:07 | 44.29089 | 18.71613 | 34947 ft | 495 kts | 117° |
| 2026-05-06 14:08 | 44.26215 | 18.80326 | 34958 ft | 496 kts | 117° |
| 2026-05-06 14:08 | 44.23327 | 18.89057 | 34957 ft | 495 kts | 117° |
| 2026-05-06 14:09 | 44.20426 | 18.97777 | 34946 ft | 495 kts | 117° |
| 2026-05-06 14:09 | 44.17535 | 19.06461 | 34935 ft | 494 kts | 117° |
| 2026-05-06 14:10 | 44.14634 | 19.15148 | 34933 ft | 494 kts | 116° |
| 2026-05-06 14:10 | 44.12596 | 19.24268 | 34941 ft | 496 kts | 105° |
| 2026-05-06 14:11 | 44.10996 | 19.33598 | 34935 ft | 495 kts | 104° |
| 2026-05-06 14:11 | 44.09380 | 19.42921 | 34941 ft | 496 kts | 105° |
| 2026-05-06 14:12 | 44.07746 | 19.52234 | 34937 ft | 495 kts | 105° |
| 2026-05-06 14:12 | 44.06112 | 19.61527 | 34929 ft | 495 kts | 104° |
| 2026-05-06 14:13 | 44.04485 | 19.70768 | 34937 ft | 496 kts | 104° |
| 2026-05-06 14:13 | 44.02788 | 19.80051 | 34937 ft | 495 kts | 109° |
| 2026-05-06 14:14 | 44.00056 | 19.88797 | 34944 ft | 494 kts | 116° |
| 2026-05-06 14:14 | 43.97143 | 19.97457 | 34939 ft | 495 kts | 116° |
| 2026-05-06 14:15 | 43.94239 | 20.06098 | 34937 ft | 495 kts | 116° |
| 2026-05-06 14:15 | 43.91317 | 20.14763 | 34942 ft | 496 kts | 116° |
| 2026-05-06 14:16 | 43.88397 | 20.23381 | 34947 ft | 496 kts | 117° |
| 2026-05-06 14:16 | 43.85457 | 20.32046 | 34946 ft | 497 kts | 116° |
| 2026-05-06 14:17 | 43.82500 | 20.40721 | 34950 ft | 498 kts | 117° |
| 2026-05-06 14:17 | 43.79532 | 20.49400 | 34955 ft | 498 kts | 117° |
| 2026-05-06 14:18 | 43.76575 | 20.58019 | 34958 ft | 498 kts | 117° |
| 2026-05-06 14:18 | 43.73589 | 20.66696 | 34961 ft | 499 kts | 117° |
| 2026-05-06 14:19 | 43.70607 | 20.75334 | 34961 ft | 499 kts | 117° |
| 2026-05-06 14:19 | 43.67613 | 20.84013 | 34954 ft | 499 kts | 117° |
| 2026-05-06 14:20 | 43.64626 | 20.92639 | 34954 ft | 500 kts | 117° |
| 2026-05-06 14:20 | 43.61619 | 21.01260 | 34953 ft | 500 kts | 117° |
| 2026-05-06 14:21 | 43.60103 | 21.05591 | 34851 ft | 497 kts | 117° |
| 2026-05-06 14:21 | 43.58600 | 21.09885 | 34186 ft | 494 kts | 117° |
| 2026-05-06 14:21 | 43.57113 | 21.14129 | 33525 ft | 490 kts | 117° |
| 2026-05-06 14:21 | 43.55640 | 21.18333 | 32894 ft | 486 kts | 117° |
| 2026-05-06 14:22 | 43.54182 | 21.22490 | 32289 ft | 483 kts | 117° |
| 2026-05-06 14:22 | 43.52723 | 21.26641 | 31723 ft | 479 kts | 117° |
| 2026-05-06 14:22 | 43.51268 | 21.30771 | 31173 ft | 476 kts | 117° |
| 2026-05-06 14:22 | 43.49826 | 21.34856 | 30642 ft | 472 kts | 117° |
| 2026-05-06 14:23 | 43.48399 | 21.38890 | 30126 ft | 469 kts | 117° |
| 2026-05-06 14:23 | 43.46964 | 21.42940 | 29527 ft | 466 kts | 117° |
| 2026-05-06 14:23 | 43.45562 | 21.46891 | 28970 ft | 461 kts | 117° |
| 2026-05-06 14:23 | 43.44164 | 21.50826 | 28434 ft | 457 kts | 116° |
| 2026-05-06 14:24 | 43.42762 | 21.54762 | 27902 ft | 453 kts | 116° |
| 2026-05-06 14:24 | 43.41378 | 21.58639 | 27402 ft | 448 kts | 117° |
| 2026-05-06 14:24 | 43.40028 | 21.62415 | 26910 ft | 445 kts | 117° |
| 2026-05-06 14:24 | 43.38665 | 21.66236 | 26427 ft | 440 kts | 116° |
| 2026-05-06 14:25 | 43.37321 | 21.70011 | 25944 ft | 437 kts | 117° |
| 2026-05-06 14:25 | 43.35984 | 21.73754 | 25482 ft | 433 kts | 117° |
| 2026-05-06 14:25 | 43.34668 | 21.77419 | 25051 ft | 429 kts | 117° |
| 2026-05-06 14:25 | 43.33351 | 21.81081 | 24634 ft | 426 kts | 117° |
| 2026-05-06 14:26 | 43.32042 | 21.84728 | 24210 ft | 422 kts | 117° |
| 2026-05-06 14:26 | 43.30762 | 21.88299 | 23826 ft | 419 kts | 117° |
| 2026-05-06 14:26 | 43.29473 | 21.91882 | 23424 ft | 416 kts | 117° |
| 2026-05-06 14:26 | 43.28193 | 21.95429 | 22993 ft | 413 kts | 117° |
| 2026-05-06 14:27 | 43.26924 | 21.98935 | 22573 ft | 410 kts | 117° |
| 2026-05-06 14:27 | 43.25645 | 22.02454 | 22135 ft | 407 kts | 117° |
| 2026-05-06 14:27 | 43.24391 | 22.05904 | 21691 ft | 404 kts | 117° |
| 2026-05-06 14:27 | 43.23153 | 22.09320 | 21259 ft | 401 kts | 117° |
| 2026-05-06 14:28 | 43.21914 | 22.12738 | 20821 ft | 398 kts | 117° |
| 2026-05-06 14:28 | 43.20681 | 22.16139 | 20372 ft | 395 kts | 117° |
| 2026-05-06 14:28 | 43.19478 | 22.19451 | 19932 ft | 392 kts | 117° |
| 2026-05-06 14:28 | 43.18266 | 22.22784 | 19502 ft | 389 kts | 117° |
| 2026-05-06 14:29 | 43.17042 | 22.26138 | 19063 ft | 386 kts | 117° |
| 2026-05-06 14:29 | 43.15844 | 22.29410 | 18591 ft | 383 kts | 117° |
| 2026-05-06 14:29 | 43.14652 | 22.32662 | 18093 ft | 381 kts | 117° |
| 2026-05-06 14:29 | 43.13473 | 22.35882 | 17633 ft | 378 kts | 117° |
| 2026-05-06 14:30 | 43.12132 | 22.38965 | 17146 ft | 374 kts | 129° |
| 2026-05-06 14:30 | 43.10525 | 22.41677 | 16687 ft | 370 kts | 130° |
| 2026-05-06 14:30 | 43.08880 | 22.44426 | 16247 ft | 367 kts | 130° |
| 2026-05-06 14:30 | 43.07289 | 22.47077 | 15821 ft | 363 kts | 131° |
| 2026-05-06 14:31 | 43.05692 | 22.49738 | 15368 ft | 360 kts | 130° |
| 2026-05-06 14:31 | 43.04107 | 22.52372 | 14940 ft | 357 kts | 131° |
| 2026-05-06 14:31 | 43.02531 | 22.54985 | 14489 ft | 354 kts | 130° |
| 2026-05-06 14:31 | 43.00969 | 22.57576 | 14121 ft | 350 kts | 131° |
| 2026-05-06 14:32 | 42.99443 | 22.60109 | 13718 ft | 346 kts | 130° |
| 2026-05-06 14:32 | 42.97924 | 22.62629 | 13258 ft | 342 kts | 131° |
| 2026-05-06 14:32 | 42.96418 | 22.65127 | 12810 ft | 338 kts | 130° |
| 2026-05-06 14:32 | 42.94924 | 22.67596 | 12348 ft | 335 kts | 131° |
| 2026-05-06 14:33 | 42.93468 | 22.70001 | 11899 ft | 332 kts | 131° |
| 2026-05-06 14:33 | 42.92001 | 22.72427 | 11454 ft | 330 kts | 130° |
| 2026-05-06 14:33 | 42.90538 | 22.74844 | 11027 ft | 327 kts | 131° |
| 2026-05-06 14:33 | 42.89091 | 22.77232 | 10596 ft | 326 kts | 131° |
| 2026-05-06 14:34 | 42.87653 | 22.79604 | 10191 ft | 323 kts | 131° |
| 2026-05-06 14:34 | 42.86225 | 22.81953 | 10008 ft | 321 kts | 131° |
| 2026-05-06 14:34 | 42.84794 | 22.84302 | 10001 ft | 324 kts | 131° |
| 2026-05-06 14:34 | 42.83843 | 22.85863 | 10008 ft | 324 kts | 130° |
| 2026-05-06 14:35 | 42.82403 | 22.88225 | 9929 ft | 322 kts | 131° |
| 2026-05-06 14:35 | 42.80975 | 22.90569 | 9465 ft | 321 kts | 131° |
| 2026-05-06 14:35 | 42.79548 | 22.92912 | 8962 ft | 322 kts | 131° |
| 2026-05-06 14:35 | 42.78122 | 22.95257 | 8538 ft | 319 kts | 132° |
| 2026-05-06 14:36 | 42.76755 | 22.97508 | 8397 ft | 296 kts | 131° |
| 2026-05-06 14:36 | 42.75472 | 22.99619 | 7986 ft | 285 kts | 132° |
| 2026-05-06 14:36 | 42.74215 | 23.01678 | 7458 ft | 281 kts | 132° |
| 2026-05-06 14:36 | 42.72968 | 23.03715 | 6882 ft | 279 kts | 132° |
| 2026-05-06 14:37 | 42.71961 | 23.05954 | 6518 ft | 280 kts | 112° |
| 2026-05-06 14:37 | 42.71566 | 23.08539 | 6176 ft | 284 kts | 97° |
| 2026-05-06 14:37 | 42.71414 | 23.11254 | 5783 ft | 287 kts | 96° |
| 2026-05-06 14:37 | 42.71268 | 23.13961 | 5410 ft | 287 kts | 97° |
| 2026-05-06 14:38 | 42.71116 | 23.16634 | 5034 ft | 278 kts | 96° |
| 2026-05-06 14:38 | 42.70967 | 23.19213 | 4680 ft | 268 kts | 96° |
| 2026-05-06 14:38 | 42.70824 | 23.21680 | 4334 ft | 256 kts | 96° |
| 2026-05-06 14:38 | 42.70691 | 23.23989 | 4013 ft | 234 kts | 96° |
| 2026-05-06 14:39 | 42.70567 | 23.26106 | 3730 ft | 217 kts | 95° |
| 2026-05-06 14:39 | 42.70449 | 23.28113 | 3457 ft | 209 kts | 95° |
| 2026-05-06 14:39 | 42.70340 | 23.29973 | 3202 ft | 189 kts | 94° |
| 2026-05-06 14:39 | 42.70242 | 23.31652 | 2959 ft | 166 kts | 94° |
| 2026-05-06 14:40 | 42.70153 | 23.33149 | 2747 ft | 154 kts | 95° |
| 2026-05-06 14:40 | 42.70070 | 23.34558 | 2552 ft | 150 kts | 94° |
| 2026-05-06 14:40 | 42.69988 | 23.35953 | 2360 ft | 148 kts | 94° |
| 2026-05-06 14:40 | 42.69906 | 23.37338 | 2164 ft | 147 kts | 93° |
| 2026-05-06 14:41 | 42.69824 | 23.38717 | 1970 ft | 146 kts | 92° |
| 2026-05-06 14:41 | 42.69748 | 23.40078 | 1788 ft | 144 kts | 90° |
| 2026-05-06 14:41 | 42.69677 | 23.41342 | 1755 ft | 112 kts | 94° |
| 2026-05-06 14:41 | 42.69629 | 23.42096 | 1753 ft | 53 kts | 95° |
| 2026-05-06 14:42 | 42.69601 | 23.42522 | 1752 ft | 24 kts | 108° |
| 2026-05-06 14:42 | 42.69505 | 23.42712 | 1753 ft | 25 kts | 126° |
| 2026-05-06 14:42 | 42.69412 | 23.42743 | 1749 ft | 14 kts | 227° |
| 2026-05-06 14:42 | 42.69408 | 23.42606 | 1744 ft | 16 kts | 275° |
| 2026-05-06 14:43 | 42.69418 | 23.42446 | 1753 ft | 21 kts | 275° |
| 2026-05-06 14:43 | 42.69435 | 23.42161 | 1753 ft | 35 kts | 274° |
| 2026-05-06 14:43 | 42.69452 | 23.41828 | 1746 ft | 36 kts | 275° |
| 2026-05-06 14:43 | 42.69459 | 23.41550 | 1746 ft | 15 kts | 232° |
| 2026-05-06 14:44 | 42.69358 | 23.41522 | 1747 ft | 16 kts | 184° |
| 2026-05-06 14:44 | 42.69248 | 23.41532 | 1750 ft | 13 kts | 157° |
| 2026-05-06 14:44 | 42.69213 | 23.41482 | 1753 ft | 9 kts | 265° |
| 2026-05-06 14:45 | 42.69198 | 23.41411 | 1747 ft | 0 kts | 252° |